Time;durP1;ratioP1;P1;durP2;ratioP2;P2;SDS_P1;SDS_P2;PMS_P1;PMS_P2;Temp;Humidity;BMP_temperature;BMP_pressure;BME280_temperature;BME280_humidity;BME280_pressure;Samples;Min_cycle;Max_cycle;Signal;HPM_P1;HPM_P2
2022/11/04 00:02:04;;;;;;;6.72;2.90;;;;;;;11.38;100.00;99275.59;5179871;28;20030;-74
2022/11/04 00:04:34;;;;;;;9.25;2.90;;;;;;;11.35;100.00;99276.63;5179932;28;20030;-74
2022/11/04 00:08:22;;;;;;;8.13;2.67;;;;;;;11.19;100.00;99273.25;5176049;28;20407;-74
2022/11/04 00:09:54;;;;;;;8.63;2.83;;;;;;;11.18;100.00;99273.31;5177846;28;20419;-74
2022/11/04 00:12:25;;;;;;;5.05;2.78;;;;;;;11.19;100.00;99275.84;5179963;28;20026;-74
2022/11/04 00:17:18;;;;;;;8.63;3.33;;;;;;;11.16;100.00;99267.34;5178551;28;20126;-74
2022/11/04 00:17:45;;;;;;;9.27;3.03;;;;;;;11.22;100.00;99275.66;5178115;28;20029;-74
2022/11/04 00:28:42;;;;;;;10.82;3.10;;;;;;;11.41;100.00;99259.72;5178181;28;20073;-73
2022/11/04 00:34:02;;;;;;;9.10;3.10;;;;;;;11.53;100.00;99254.59;5179438;28;20100;-74
2022/11/04 00:36:32;;;;;;;8.87;2.70;;;;;;;11.52;100.00;99254.69;5176082;28;20034;-74
2022/11/04 00:39:02;;;;;;;9.63;2.67;;;;;;;11.46;100.00;99255.88;5177717;28;20279;-74
2022/11/04 00:41:32;;;;;;;5.75;2.88;;;;;;;11.49;100.00;99253.13;5176100;28;20033;-73
2022/11/04 00:44:04;;;;;;;8.32;2.90;;;;;;;11.47;100.00;99256.75;5177522;28;20419;-74
2022/11/04 00:46:34;;;;;;;8.05;3.45;;;;;;;11.49;100.00;99253.13;5177541;28;20380;-74
2022/11/04 00:49:04;;;;;;;9.90;3.53;;;;;;;11.42;100.00;99259.63;5177005;28;20049;-73
2022/11/04 00:51:35;;;;;;;8.18;3.53;;;;;;;11.34;100.00;99258.41;5178954;28;20436;-74
2022/11/04 00:54:05;;;;;;;8.40;3.30;;;;;;;11.30;100.00;99262.97;5179318;28;20030;-74
2022/11/04 00:56:39;;;;;;;7.93;3.28;;;;;;;11.23;100.00;99256.44;5179164;28;20033;-74
2022/11/04 00:59:10;;;;;;;6.97;3.17;;;;;;;11.28;100.00;99249.13;5179440;28;20026;-74
2022/11/04 01:01:41;;;;;;;7.53;3.10;;;;;;;11.39;100.00;99245.88;5178736;28;20030;-73
2022/11/04 01:04:11;;;;;;;8.95;3.10;;;;;;;11.48;100.00;99246.16;5177903;28;20037;-73
2022/11/04 01:06:41;;;;;;;5.93;2.97;;;;;;;11.49;100.00;99250.50;5178292;28;20021;-74
2022/11/04 01:09:12;;;;;;;8.57;3.30;;;;;;;11.38;100.00;99255.53;5177814;28;20518;-73
2022/11/04 01:11:42;;;;;;;5.35;2.92;;;;;;;11.37;100.00;99258.22;5182518;28;20030;-74
2022/11/04 01:14:13;;;;;;;7.38;3.00;;;;;;;11.24;100.00;99258.09;5182409;28;20366;-74
2022/11/04 01:16:44;;;;;;;12.90;3.22;;;;;;;11.18;100.00;99258.47;5182334;28;20513;-74
2022/11/04 01:19:14;;;;;;;11.65;3.75;;;;;;;11.23;100.00;99272.13;5183317;28;20045;-74
2022/11/04 01:21:45;;;;;;;8.52;2.92;;;;;;;11.35;100.00;99268.78;5183385;28;20399;-73
2022/11/04 01:24:15;;;;;;;9.32;3.30;;;;;;;11.36;100.00;99265.22;5183449;28;20514;-74
2022/11/04 01:26:45;;;;;;;7.55;3.38;;;;;;;11.37;100.00;99256.44;5181858;28;20201;-74
2022/11/04 01:29:16;;;;;;;8.50;3.33;;;;;;;11.31;100.00;99259.41;5183200;28;20476;-74
2022/11/04 01:31:46;;;;;;;8.88;3.45;;;;;;;11.31;100.00;99261.19;5181687;28;20026;-74
2022/11/04 01:34:16;;;;;;;6.45;3.40;;;;;;;11.35;100.00;99260.94;5174412;28;20057;-74
2022/11/04 01:36:47;;;;;;;7.97;3.50;;;;;;;11.41;100.00;99250.09;5180534;28;20026;-73
2022/11/04 01:39:17;;;;;;;7.00;3.40;;;;;;;11.37;100.00;99240.75;5182243;28;20080;-74
2022/11/04 01:41:47;;;;;;;8.68;3.42;;;;;;;11.33;100.00;99247.13;5182767;28;20030;-74
2022/11/04 01:44:54;;;;;;;8.40;3.33;;;;;;;11.27;100.00;99252.69;5181749;28;20507;-74
2022/11/04 01:47:46;;;;;;;7.43;3.40;;;;;;;11.32;100.00;99247.19;5181178;28;20034;-73
2022/11/04 01:50:23;;;;;;;12.68;3.63;;;;;;;11.30;100.00;99257.72;5182625;28;20256;-74
2022/11/04 01:53:02;;;;;;;9.55;3.75;;;;;;;11.30;100.00;99262.13;5178687;28;20025;-73
2022/11/04 01:55:34;;;;;;;11.73;3.70;;;;;;;11.29;100.00;99268.31;5182928;28;20026;-73
2022/11/04 01:58:10;;;;;;;8.32;3.83;;;;;;;11.24;100.00;99271.19;5181160;28;20032;-74
2022/11/04 02:00:42;;;;;;;7.90;3.83;;;;;;;11.15;100.00;99266.50;5182457;28;20403;-73
2022/11/04 02:03:17;;;;;;;11.52;4.07;;;;;;;11.09;100.00;99279.91;5182721;28;20038;-74
2022/11/04 02:05:49;;;;;;;9.02;3.42;;;;;;;11.02;100.00;99278.59;5182607;28;20026;-74
2022/11/04 02:08:20;;;;;;;10.82;3.60;;;;;;;11.03;100.00;99282.03;5182012;28;20460;-74
2022/11/04 02:10:57;;;;;;;10.07;3.47;;;;;;;11.12;100.00;99274.50;5182176;28;20034;-74
2022/11/04 02:13:29;;;;;;;8.95;3.65;;;;;;;11.04;100.00;99276.75;5181259;28;20022;-75
2022/11/04 02:16:33;;;;;;;8.15;3.75;;;;;;;10.89;100.00;99270.72;5182010;28;20483;-74
2022/11/04 02:19:09;;;;;;;7.43;3.60;;;;;;;10.96;100.00;99279.88;5177767;28;20073;-74
2022/11/04 02:22:07;;;;;;;9.50;3.83;;;;;;;10.94;100.00;99289.56;5182086;28;20491;-74
2022/11/04 02:24:56;;;;;;;9.88;3.75;;;;;;;10.82;100.00;99285.91;5178389;28;20030;-74
2022/11/04 02:28:03;;;;;;;6.90;3.67;;;;;;;10.85;100.00;99293.56;5177723;28;20440;-74
2022/11/04 02:30:39;;;;;;;10.95;3.72;;;;;;;10.89;100.00;99291.63;5164715;28;20510;-74
2022/11/04 02:33:31;;;;;;;9.90;4.35;;;;;;;10.82;100.00;99301.56;5182090;28;20048;-74
2022/11/04 02:36:07;;;;;;;12.73;4.50;;;;;;;10.76;100.00;99301.09;5178916;28;20132;-74
2022/11/04 02:38:54;;;;;;;7.05;3.78;;;;;;;10.77;100.00;99313.22;5179911;28;20472;-74
2022/11/04 02:41:38;;;;;;;14.30;4.57;;;;;;;10.67;100.00;99317.28;5179320;28;20036;-74
2022/11/04 02:44:20;;;;;;;11.25;5.43;;;;;;;10.67;100.00;99312.06;5181810;28;20500;-74
2022/11/04 02:47:02;;;;;;;10.80;4.63;;;;;;;10.70;100.00;99317.13;5180079;28;20061;-74
2022/11/04 02:50:19;;;;;;;8.40;4.57;;;;;;;10.79;100.00;99316.56;5180337;28;20021;-74
2022/11/04 02:52:56;;;;;;;9.82;4.07;;;;;;;10.92;100.00;99307.13;5180010;28;20455;-74
2022/11/04 02:55:33;;;;;;;8.13;3.95;;;;;;;10.88;100.00;99301.22;5177597;28;20029;-74
2022/11/04 02:58:09;;;;;;;7.72;3.72;;;;;;;10.90;100.00;99288.06;5179847;28;20021;-74
2022/11/04 03:00:42;;;;;;;10.88;3.70;;;;;;;10.90;100.00;99288.06;5179454;28;20129;-74
2022/11/04 03:03:17;;;;;;;9.75;4.50;;;;;;;10.83;100.00;99286.75;5181806;28;20036;-74
2022/11/04 03:05:51;;;;;;;7.90;3.55;;;;;;;10.75;100.00;99292.41;5206205;23;20033;-77
2022/11/04 03:08:28;;;;;;;9.10;4.07;;;;;;;10.73;100.00;99290.81;5176730;28;20313;-77
2022/11/04 03:11:09;;;;;;;10.13;4.15;;;;;;;10.64;100.00;99284.34;5176269;28;20559;-77
2022/11/04 03:13:48;;;;;;;9.57;4.30;;;;;;;10.69;100.00;99294.53;5180002;28;20386;-77
2022/11/04 03:16:27;;;;;;;12.70;4.00;;;;;;;10.61;100.00;99281.03;5175622;28;20088;-76
2022/11/04 03:19:07;;;;;;;9.25;4.10;;;;;;;10.54;100.00;99288.38;5152320;28;20443;-77
2022/11/04 03:21:44;;;;;;;6.43;3.63;;;;;;;10.75;100.00;99284.56;5160479;28;20026;-76
2022/11/04 03:24:15;;;;;;;9.23;4.25;;;;;;;10.68;100.00;99293.66;5175311;28;20049;-77
2022/11/04 03:26:56;;;;;;;8.43;4.25;;;;;;;10.91;100.00;99290.63;5160143;28;20652;-77
2022/11/04 03:29:38;;;;;;;12.27;4.13;;;;;;;10.89;100.00;99292.44;5155839;28;20030;-76
2022/11/04 03:32:17;;;;;;;8.18;3.95;;;;;;;10.87;100.00;99277.81;5159558;28;20060;-77
2022/11/04 03:34:48;;;;;;;6.43;3.63;;;;;;;10.67;100.00;99304.22;5158696;28;20568;-76
2022/11/04 03:37:18;;;;;;;8.10;4.00;;;;;;;10.78;100.00;99312.28;5158352;28;20109;-77
2022/11/04 03:39:49;;;;;;;7.30;4.10;;;;;;;10.70;100.00;99323.16;5160158;28;20096;-77
2022/11/04 03:42:20;;;;;;;7.18;4.07;;;;;;;10.77;100.00;99324.53;5160215;28;20030;-77
2022/11/04 03:44:53;;;;;;;10.73;4.40;;;;;;;10.85;100.00;99343.22;5159053;28;20288;-76
2022/11/04 03:47:25;;;;;;;8.98;4.00;;;;;;;10.96;100.00;99343.47;5157440;28;20113;-77
2022/11/04 03:50:02;;;;;;;6.50;3.28;;;;;;;11.00;100.00;99351.97;5160664;28;20033;-77
2022/11/04 03:52:33;;;;;;;6.78;3.33;;;;;;;10.98;100.00;99365.13;5159755;28;20057;-76
2022/11/04 03:55:06;;;;;;;6.00;3.33;;;;;;;11.02;100.00;99372.72;5158675;28;20037;-77
2022/11/04 03:58:01;;;;;;;7.00;3.35;;;;;;;11.06;100.00;99371.59;5159574;28;20091;-77
2022/11/04 04:00:44;;;;;;;7.00;3.25;;;;;;;11.14;100.00;99377.22;5157666;28;20544;-76
2022/11/04 04:03:21;;;;;;;4.13;2.80;;;;;;;11.16;100.00;99370.16;5158650;28;20080;-77
2022/11/04 04:05:56;;;;;;;8.77;3.50;;;;;;;11.20;100.00;99382.13;5159302;28;20030;-77
2022/11/04 04:08:45;;;;;;;6.80;3.60;;;;;;;11.33;100.00;99377.88;5155848;28;20193;-77
2022/11/04 04:11:21;;;;;;;6.63;3.35;;;;;;;11.32;100.00;99381.44;5159703;28;20493;-77
2022/11/04 04:14:00;;;;;;;6.32;3.78;;;;;;;11.31;100.00;99379.72;5156969;28;20038;-77
2022/11/04 04:16:44;;;;;;;5.60;3.17;;;;;;;11.25;100.00;99369.63;5157577;28;20276;-77
2022/11/04 04:19:22;;;;;;;6.75;3.20;;;;;;;11.27;100.00;99377.41;5159600;28;20101;-77
2022/11/04 04:22:02;;;;;;;7.13;2.90;;;;;;;11.29;100.00;99392.06;5159934;28;20554;-77
2022/11/04 04:27:31;;;;;;;7.53;3.05;;;;;;;11.24;100.00;99404.56;5154833;28;20443;-77
2022/11/04 04:30:12;;;;;;;6.03;2.40;;;;;;;11.31;100.00;99402.44;5159238;28;20121;-77
2022/11/04 04:32:54;;;;;;;5.22;2.60;;;;;;;11.24;100.00;99409.78;5159567;28;20451;-77
2022/11/04 04:35:42;;;;;;;4.50;2.05;;;;;;;11.31;100.00;99405.06;5156093;28;20512;-77
2022/11/04 04:47:19;;;;;;;2.33;1.20;;;;;;;11.25;100.00;99426.34;5161470;28;20262;-76
2022/11/04 04:50:09;;;;;;;2.58;1.23;;;;;;;11.23;100.00;99423.78;5162974;28;20038;-77
2022/11/04 04:52:43;;;;;;;3.13;1.30;;;;;;;11.15;100.00;99426.00;5163554;28;20030;-77
2022/11/04 04:55:14;;;;;;;2.25;1.10;;;;;;;11.17;100.00;99428.53;5162607;28;20089;-76
2022/11/04 04:57:44;;;;;;;2.00;1.10;;;;;;;11.11;100.00;99432.31;5161853;28;20072;-77
2022/11/04 05:00:18;;;;;;;1.92;1.05;;;;;;;11.11;100.00;99437.53;5161625;28;20034;-77
2022/11/04 05:02:49;;;;;;;5.05;1.40;;;;;;;11.02;100.00;99436.38;5163171;28;20026;-77
2022/11/04 05:05:20;;;;;;;2.00;1.10;;;;;;;11.01;100.00;99450.38;5163193;28;20361;-77
2022/11/04 05:07:50;;;;;;;2.28;0.90;;;;;;;11.14;100.00;99437.38;5162568;28;20022;-77
2022/11/04 05:10:20;;;;;;;1.65;1.00;;;;;;;11.10;100.00;99433.25;5162308;28;20042;-77
2022/11/04 05:15:39;;;;;;;1.67;0.95;;;;;;;11.08;100.00;99442.94;5162480;28;20033;-77
2022/11/04 05:18:10;;;;;;;1.77;1.10;;;;;;;11.02;100.00;99458.13;5162701;28;20499;-77
2022/11/04 05:20:40;;;;;;;3.17;1.20;;;;;;;11.02;100.00;99453.75;5161468;28;20030;-77
2022/11/04 05:23:10;;;;;;;3.63;1.33;;;;;;;10.97;100.00;99457.53;5163357;28;20467;-77
2022/11/04 05:25:41;;;;;;;2.80;1.20;;;;;;;10.87;100.00;99466.81;5162623;28;20037;-77
2022/11/04 05:28:12;;;;;;;1.35;1.00;;;;;;;10.86;100.00;99474.75;5160961;28;20023;-76
2022/11/04 05:30:43;;;;;;;1.65;1.00;;;;;;;10.87;100.00;99466.81;5162769;28;20089;-76
2022/11/04 05:33:13;;;;;;;3.15;1.10;;;;;;;10.92;100.00;99471.78;5163366;28;20121;-77
2022/11/04 05:35:43;;;;;;;2.33;1.10;;;;;;;10.86;100.00;99479.97;5162618;28;20508;-76
2022/11/04 05:38:14;;;;;;;1.55;1.02;;;;;;;10.86;100.00;99485.19;5162137;28;20022;-76
2022/11/04 05:40:44;;;;;;;2.08;0.98;;;;;;;10.85;100.00;99486.13;5161044;28;20030;-76
2022/11/04 05:43:14;;;;;;;4.30;1.25;;;;;;;10.74;100.00;99491.06;5177901;28;20046;-76
2022/11/04 05:45:45;;;;;;;2.38;1.02;;;;;;;10.63;100.00;99499.50;5161510;28;20039;-77
2022/11/04 05:48:15;;;;;;;1.83;1.00;;;;;;;10.76;100.00;99507.50;5161851;28;20066;-77
2022/11/04 05:50:46;;;;;;;1.50;0.90;;;;;;;10.67;100.00;99511.47;5160264;28;20042;-76
2022/11/04 05:53:16;;;;;;;1.88;1.20;;;;;;;10.79;100.00;99509.97;5162127;28;20525;-77
2022/11/04 05:55:47;;;;;;;2.47;1.23;;;;;;;10.67;100.00;99515.84;5161533;28;20018;-77
2022/11/04 05:58:17;;;;;;;1.48;1.02;;;;;;;10.63;100.00;99516.91;5160511;28;20053;-77
2022/11/04 06:00:47;;;;;;;1.60;0.93;;;;;;;10.62;100.00;99516.09;5161964;28;20029;-77
2022/11/04 06:03:17;;;;;;;3.55;1.60;;;;;;;10.51;100.00;99520.19;5161598;28;20399;-77
2022/11/04 06:05:48;;;;;;;2.97;1.80;;;;;;;10.47;100.00;99519.50;5159144;28;20022;-77
2022/11/04 06:08:18;;;;;;;3.67;1.55;;;;;;;10.44;100.00;99524.88;5160983;28;20384;-77
2022/11/04 06:10:48;;;;;;;1.73;1.27;;;;;;;10.40;100.00;99535.56;5161431;28;20026;-76
2022/11/04 06:13:18;;;;;;;3.40;1.27;;;;;;;10.34;100.00;99559.41;5161953;28;20049;-77
2022/11/04 06:15:49;;;;;;;2.97;1.10;;;;;;;10.30;100.00;99570.91;5160256;28;20030;-77
2022/11/04 06:18:19;;;;;;;2.13;1.20;;;;;;;10.39;100.00;99584.38;5159346;28;20278;-77
2022/11/04 06:20:49;;;;;;;5.32;1.23;;;;;;;10.35;100.00;99590.63;5161402;28;20078;-76
2022/11/04 06:23:19;;;;;;;4.57;1.38;;;;;;;10.41;100.00;99586.88;5159931;28;20037;-77
2022/11/04 06:25:51;;;;;;;1.92;1.30;;;;;;;10.39;100.00;99562.59;5161356;28;20109;-76
2022/11/04 06:28:22;;;;;;;2.13;1.33;;;;;;;10.31;100.00;99530.84;5161139;28;20033;-76
2022/11/04 06:30:52;;;;;;;2.58;1.25;;;;;;;10.40;100.00;99528.59;5160548;28;20030;-77
2022/11/04 06:33:22;;;;;;;2.72;1.50;;;;;;;10.19;100.00;99536.66;5161133;28;20022;-77
2022/11/04 06:35:56;;;;;;;2.42;1.60;;;;;;;10.13;100.00;99547.44;5161220;28;20625;-77
2022/11/04 06:38:29;;;;;;;2.78;1.60;;;;;;;10.18;100.00;99574.13;5156771;28;20026;-76
2022/11/04 06:41:00;;;;;;;4.63;1.67;;;;;;;10.22;100.00;99589.59;5161291;28;20183;-77
2022/11/04 06:43:30;;;;;;;5.00;1.60;;;;;;;10.23;100.00;99591.28;5160477;28;20034;-77
2022/11/04 06:46:01;;;;;;;3.03;1.30;;;;;;;10.26;100.00;99592.88;5161334;28;20042;-77
2022/11/04 06:48:32;;;;;;;3.63;1.40;;;;;;;10.28;100.00;99591.88;5159503;28;20178;-76
2022/11/04 06:51:02;;;;;;;3.25;1.65;;;;;;;10.33;100.00;99594.25;5159986;28;20034;-77
2022/11/04 06:53:32;;;;;;;4.68;1.52;;;;;;;10.43;100.00;99595.47;5175363;28;20042;-76
2022/11/04 06:56:03;;;;;;;3.03;1.40;;;;;;;10.39;100.00;99607.00;5160025;28;20036;-76
2022/11/04 06:58:33;;;;;;;4.25;1.42;;;;;;;10.36;100.00;99604.56;5159581;28;20305;-77
2022/11/04 07:01:03;;;;;;;3.47;1.50;;;;;;;10.49;100.00;99592.56;5160726;28;20041;-77
2022/11/04 07:03:34;;;;;;;4.30;1.60;;;;;;;10.48;100.00;99581.25;5159831;28;20869;-77
2022/11/04 07:06:06;;;;;;;2.97;1.30;;;;;;;10.71;100.00;99574.88;5160122;28;20033;-74
2022/11/04 07:08:36;;;;;;;1.95;1.40;;;;;;;10.62;100.00;99567.50;5159079;28;20026;-77
2022/11/04 07:11:07;;;;;;;4.65;1.63;;;;;;;10.64;100.00;99563.03;5161195;28;20041;-77
2022/11/04 07:13:37;;;;;;;6.38;1.90;;;;;;;10.60;100.00;99566.72;5160807;28;20034;-76
2022/11/04 07:16:08;;;;;;;2.88;1.60;;;;;;;10.60;100.00;99571.94;5159687;28;20434;-76
2022/11/04 07:18:38;;;;;;;4.15;1.92;;;;;;;10.66;100.00;99553.38;5159994;28;20030;-76
2022/11/04 07:21:09;;;;;;;4.32;1.80;;;;;;;10.65;100.00;99568.19;5158966;28;20067;-76
2022/11/04 07:23:40;;;;;;;3.38;1.63;;;;;;;10.69;100.00;99576.72;5159660;28;20472;-77
2022/11/04 07:26:11;;;;;;;4.95;2.10;;;;;;;10.66;100.00;99580.31;5160017;28;20045;-76
2022/11/04 07:28:41;;;;;;;5.38;1.90;;;;;;;10.76;100.00;99583.28;5159423;28;20030;-76
2022/11/04 07:31:13;;;;;;;4.43;1.83;;;;;;;10.68;100.00;99580.25;5160952;28;20038;-76
2022/11/04 07:33:48;;;;;;;5.20;2.05;;;;;;;10.71;100.00;99585.31;5160875;28;21065;-77
2022/11/04 07:36:18;;;;;;;3.80;1.92;;;;;;;10.69;100.00;99597.63;5160651;28;20113;-76
2022/11/04 07:38:49;;;;;;;5.75;2.10;;;;;;;10.70;100.00;99601.91;5174226;28;20117;-76
2022/11/04 07:41:20;;;;;;;3.95;1.67;;;;;;;10.81;100.00;99617.88;5159470;28;20027;-77
2022/11/04 07:43:51;;;;;;;5.28;2.05;;;;;;;10.94;100.00;99611.09;5160418;28;20492;-76
2022/11/04 07:46:21;;;;;;;3.50;1.63;;;;;;;10.96;100.00;99624.91;5159987;28;20404;-76
2022/11/04 07:48:55;;;;;;;4.07;1.55;;;;;;;11.09;100.00;99635.50;5159339;28;20035;-76
2022/11/04 07:51:25;;;;;;;6.68;1.48;;;;;;;11.08;100.00;99640.84;5156324;28;20299;-77
2022/11/04 07:53:56;;;;;;;3.78;1.48;;;;;;;11.22;100.00;99636.56;5159104;28;20045;-77
2022/11/04 07:56:26;;;;;;;4.15;1.45;;;;;;;11.14;100.00;99637.88;5159260;28;20022;-74
2022/11/04 07:58:56;;;;;;;3.47;1.30;;;;;;;11.23;100.00;99626.91;5157592;28;20068;-77
2022/11/04 08:01:27;;;;;;;3.70;1.40;;;;;;;11.15;100.00;99637.81;5159724;28;20143;-76
2022/11/04 08:03:57;;;;;;;7.07;1.40;;;;;;;11.11;100.00;99644.09;5158095;28;20030;-76
2022/11/04 08:06:29;;;;;;;3.65;1.17;;;;;;;11.10;100.00;99641.59;5158339;28;20068;-76
2022/11/04 08:08:59;;;;;;;4.40;1.20;;;;;;;11.04;100.00;99647.13;5156294;28;20141;-76
2022/11/04 08:11:29;;;;;;;3.38;1.20;;;;;;;11.21;100.00;99655.78;5159075;28;20521;-77
2022/11/04 08:14:02;;;;;;;3.90;1.38;;;;;;;11.20;100.00;99653.25;5157973;28;20131;-77
2022/11/04 08:16:32;;;;;;;3.22;1.50;;;;;;;11.23;100.00;99656.56;5158055;28;20412;-76
2022/11/04 08:19:03;;;;;;;4.72;1.70;;;;;;;11.21;100.00;99663.63;5159495;28;20030;-77
2022/11/04 08:21:33;;;;;;;5.07;1.73;;;;;;;11.18;100.00;99666.41;5159229;28;20026;-76
2022/11/04 08:24:04;;;;;;;4.15;1.52;;;;;;;11.30;100.00;99664.91;5159659;28;20109;-77
2022/11/04 08:26:35;;;;;;;3.80;1.33;;;;;;;11.22;100.00;99670.56;5158487;28;20026;-77
2022/11/04 08:29:07;;;;;;;3.58;1.27;;;;;;;11.34;100.00;99675.16;5159116;28;20041;-76
2022/11/04 08:31:38;;;;;;;3.15;1.08;;;;;;;11.24;100.00;99670.50;5158344;28;20030;-77
2022/11/04 08:34:08;;;;;;;3.83;1.60;;;;;;;11.25;100.00;99677.41;5159206;28;20033;-77
2022/11/04 08:36:42;;;;;;;4.70;1.30;;;;;;;11.22;100.00;99675.78;5158323;28;20480;-77
2022/11/04 08:39:12;;;;;;;4.85;1.48;;;;;;;11.28;100.00;99690.31;5158989;28;20030;-77
2022/11/04 08:41:44;;;;;;;2.83;1.30;;;;;;;11.30;100.00;99696.31;5157473;28;20042;-77
2022/11/04 08:44:15;;;;;;;4.65;1.60;;;;;;;11.30;100.00;99683.22;5157478;28;20022;-77
2022/11/04 08:46:46;;;;;;;6.03;1.48;;;;;;;11.59;100.00;99683.41;5158833;28;20663;-76
2022/11/04 08:49:17;;;;;;;5.88;1.73;;;;;;;11.91;100.00;99685.13;5159098;28;20031;-77
2022/11/04 08:51:54;;;;;;;4.00;1.45;;;;;;;12.02;100.00;99682.75;5159875;28;20038;-77
2022/11/04 08:54:26;;;;;;;4.30;1.30;;;;;;;11.98;100.00;99688.25;5160066;28;20030;-77
2022/11/04 08:56:56;;;;;;;4.25;1.50;;;;;;;12.13;100.00;99684.78;5156779;28;20034;-77
2022/11/04 08:59:26;;;;;;;7.13;1.60;;;;;;;12.13;100.00;99685.59;5157354;28;20028;-77
2022/11/04 09:01:56;;;;;;;5.88;1.40;;;;;;;12.13;100.00;99697.88;5158006;28;20118;-77
2022/11/04 09:04:27;;;;;;;5.82;1.63;;;;;;;12.06;100.00;99689.50;5159954;28;20034;-76
2022/11/04 09:06:57;;;;;;;5.28;1.50;;;;;;;11.92;100.00;99697.28;5159936;28;20030;-77
2022/11/04 09:09:27;;;;;;;4.32;1.30;;;;;;;11.90;100.00;99693.91;5158346;28;20035;-77
2022/11/04 09:11:58;;;;;;;4.95;1.50;;;;;;;11.76;100.00;99683.34;5159385;28;20488;-76
2022/11/04 09:14:28;;;;;;;6.53;1.63;;;;;;;11.88;100.00;99680.06;5159210;28;20027;-77
2022/11/04 09:16:58;;;;;;;5.93;1.40;;;;;;;11.97;100.00;99668.22;5158815;28;20022;-77
2022/11/04 09:19:29;;;;;;;7.07;1.88;;;;;;;11.92;100.00;99678.94;5159034;28;20053;-76
2022/11/04 09:21:59;;;;;;;5.07;1.42;;;;;;;11.92;100.00;99671.09;5157708;28;20022;-76
2022/11/04 09:24:30;;;;;;;3.97;1.50;;;;;;;12.25;100.00;99669.19;5159264;28;20038;-77
2022/11/04 09:27:01;;;;;;;4.03;1.42;;;;;;;12.12;100.00;99673.44;5159155;28;20041;-77
2022/11/04 09:29:32;;;;;;;2.33;1.00;;;;;;;12.32;100.00;99675.78;5159411;28;20037;-76
2022/11/04 09:32:03;;;;;;;2.58;1.20;;;;;;;12.14;100.00;99668.13;5158822;28;20034;-76
2022/11/04 09:34:34;;;;;;;2.45;0.95;;;;;;;12.17;100.00;99670.56;5161198;28;20037;-76
2022/11/04 09:37:04;;;;;;;2.75;1.15;;;;;;;12.13;100.00;99669.06;5162349;28;20088;-77
2022/11/04 09:39:34;;;;;;;4.07;1.30;;;;;;;11.97;99.90;99669.06;5160425;28;20173;-76
2022/11/04 09:42:05;;;;;;;5.18;1.55;;;;;;;12.00;100.00;99653.19;5162651;28;20240;-76
2022/11/04 09:44:49;;;;;;;7.35;1.33;;;;;;;12.16;98.09;99648.75;5160789;28;20117;-76
2022/11/04 09:47:21;;;;;;;7.60;1.42;;;;;;;12.18;98.74;99644.28;5161069;28;20034;-76
2022/11/04 09:49:56;;;;;;;7.85;1.52;;;;;;;12.10;96.36;99643.03;5177006;28;20037;-76
2022/11/04 09:52:35;;;;;;;6.25;1.65;;;;;;;12.09;96.78;99630.88;5157368;28;20030;-76
2022/11/04 09:55:23;;;;;;;5.43;1.55;;;;;;;12.31;97.01;99624.31;5162468;28;20045;-76
2022/11/04 09:57:57;;;;;;;2.75;1.15;;;;;;;12.25;97.70;99622.03;5157942;28;20126;-76
2022/11/04 10:00:31;;;;;;;4.70;1.50;;;;;;;12.44;97.18;99624.47;5161166;28;20451;-77
2022/11/04 10:03:26;;;;;;;5.55;1.20;;;;;;;12.57;96.84;99633.28;5162433;28;20062;-77
2022/11/04 10:06:29;;;;;;;5.13;1.52;;;;;;;12.64;97.53;99629.38;5159360;28;20033;-77
2022/11/04 10:09:12;;;;;;;6.20;1.17;;;;;;;12.60;96.92;99628.69;5160188;28;20030;-77
2022/11/04 10:11:42;;;;;;;8.65;2.00;;;;;;;12.85;95.90;99628.91;5162619;28;20412;-77
2022/11/04 10:14:45;;;;;;;3.97;1.30;;;;;;;12.81;95.50;99634.47;5161987;28;20042;-76
2022/11/04 10:17:30;;;;;;;4.38;1.45;;;;;;;12.88;93.98;99644.50;5143315;28;20368;-74
2022/11/04 10:20:16;;;;;;;7.57;1.40;;;;;;;12.88;92.98;99653.19;5177072;28;20468;-77
2022/11/04 10:22:57;;;;;;;3.20;1.00;;;;;;;12.73;92.94;99666.38;5162234;28;20097;-77
2022/11/04 10:25:41;;;;;;;6.07;1.50;;;;;;;12.96;92.52;99663.25;5157829;28;20026;-77
2022/11/04 10:28:16;;;;;;;4.32;1.20;;;;;;;12.88;92.38;99671.56;5160679;28;20112;-76
2022/11/04 10:30:49;;;;;;;3.42;1.30;;;;;;;12.93;92.62;99680.00;5161010;28;20696;-76
2022/11/04 10:33:31;;;;;;;5.65;1.70;;;;;;;12.86;93.30;99683.09;5160853;28;20016;-76
2022/11/04 10:36:06;;;;;;;7.28;1.55;;;;;;;12.81;92.19;99682.50;5158587;28;20042;-76
2022/11/04 10:38:41;;;;;;;4.97;1.80;;;;;;;12.68;91.51;99689.41;5160278;28;20022;-76
2022/11/04 10:41:19;;;;;;;8.40;2.03;;;;;;;12.67;90.22;99692.94;5160974;28;20388;-76
2022/11/04 10:44:00;;;;;;;6.82;2.15;;;;;;;12.70;90.52;99689.31;5160983;28;20030;-75
2022/11/04 10:47:02;;;;;;;7.10;1.90;;;;;;;12.50;89.17;99690.44;5159123;28;20292;-76
2022/11/04 10:49:54;;;;;;;6.15;2.05;;;;;;;12.56;90.08;99697.97;5138234;28;20511;-76
2022/11/04 10:52:24;;;;;;;5.43;1.95;;;;;;;12.54;92.06;99691.97;5157379;28;20103;-76
2022/11/04 10:54:54;;;;;;;5.95;2.20;;;;;;;12.45;90.93;99691.66;5161527;28;20030;-76
2022/11/04 10:57:25;;;;;;;8.57;2.28;;;;;;;12.36;90.98;99698.28;5160744;28;20395;-77
2022/11/04 10:59:59;;;;;;;11.93;4.60;;;;;;;12.44;91.02;99696.03;5161224;28;20563;-77
2022/11/04 11:02:43;;;;;;;7.00;3.08;;;;;;;12.39;91.01;99698.09;5161426;28;20026;-76
2022/11/04 11:05:16;;;;;;;8.90;2.58;;;;;;;12.53;91.68;99690.28;5159921;28;20227;-76
2022/11/04 11:07:49;;;;;;;6.15;2.58;;;;;;;12.43;91.13;99694.34;5160004;28;20077;-76
2022/11/04 11:10:29;;;;;;;5.07;2.10;;;;;;;12.49;91.84;99686.13;5160214;28;20649;-76
2022/11/04 11:13:22;;;;;;;8.13;2.60;;;;;;;12.60;91.35;99696.84;5158616;28;20034;-76
2022/11/04 11:16:10;;;;;;;9.93;2.78;;;;;;;12.58;91.49;99690.88;5159899;28;20033;-76
2022/11/04 11:18:40;;;;;;;5.25;2.25;;;;;;;12.56;89.73;99703.22;5159124;28;20224;-76
2022/11/04 11:21:20;;;;;;;10.65;4.10;;;;;;;12.56;91.07;99713.69;5160660;28;20030;-76
2022/11/04 11:23:53;;;;;;;9.48;3.75;;;;;;;12.52;91.66;99714.81;5160187;28;20432;-76
2022/11/04 11:26:31;;;;;;;10.75;2.90;;;;;;;12.60;90.82;99702.09;5156721;28;20029;-76
2022/11/04 11:29:07;;;;;;;5.82;2.70;;;;;;;12.64;91.01;99700.16;5175519;28;20113;-76
2022/11/04 11:31:39;;;;;;;6.80;2.22;;;;;;;12.72;91.89;99701.41;5160841;28;20045;-76
2022/11/04 11:34:32;;;;;;;6.65;2.20;;;;;;;12.73;91.20;99710.09;5160432;28;20069;-76
2022/11/04 11:37:04;;;;;;;4.75;1.95;;;;;;;12.55;90.72;99716.41;5156499;28;20026;-76
2022/11/04 11:39:35;;;;;;;9.68;3.58;;;;;;;12.64;91.08;99719.34;5160018;28;20054;-76
2022/11/04 11:42:11;;;;;;;15.30;6.00;;;;;;;12.57;91.60;99714.53;5160527;28;20229;-76
2022/11/04 11:44:48;;;;;;;17.70;7.55;;;;;;;12.55;92.38;99719.88;5159834;28;20033;-76
2022/11/04 11:47:27;;;;;;;9.63;3.10;;;;;;;12.57;92.62;99718.00;5159919;28;20476;-76
2022/11/04 11:50:12;;;;;;;5.18;2.33;;;;;;;12.40;92.09;99710.25;5157191;28;20695;-76
2022/11/04 11:52:44;;;;;;;11.13;3.95;;;;;;;12.65;92.68;99705.28;5160067;28;20034;-76
2022/11/04 11:55:22;;;;;;;7.97;3.00;;;;;;;12.59;92.37;99718.75;5159799;28;20031;-76
2022/11/04 11:58:14;;;;;;;12.43;4.47;;;;;;;12.71;91.07;99715.44;5159805;28;20026;-76
2022/11/04 12:00:52;;;;;;;25.10;10.68;;;;;;;12.81;91.02;99718.38;5159096;28;20034;-76
2022/11/04 12:03:34;;;;;;;16.33;7.70;;;;;;;12.81;92.05;99711.34;5159231;28;20022;-76
2022/11/04 12:06:20;;;;;;;6.25;2.33;;;;;;;12.79;88.62;99718.44;5158382;28;20378;-76
2022/11/04 12:09:16;;;;;;;8.90;3.42;;;;;;;12.90;90.12;99710.81;5159336;28;20044;-76
2022/11/04 12:12:10;;;;;;;13.10;5.40;;;;;;;13.01;88.99;99708.41;5159423;28;20424;-76
2022/11/04 12:15:14;;;;;;;11.63;3.92;;;;;;;12.90;89.91;99711.63;5174470;28;20026;-76
2022/11/04 12:18:22;;;;;;;9.15;3.63;;;;;;;13.13;89.51;99712.94;5157798;28;20030;-76
2022/11/04 12:21:12;;;;;;;10.45;4.28;;;;;;;12.98;89.64;99712.09;5158731;28;20023;-76
2022/11/04 12:23:55;;;;;;;23.77;8.55;;;;;;;13.01;88.65;99708.41;5156082;28;20034;-74
2022/11/04 12:26:40;;;;;;;8.48;2.40;;;;;;;12.90;86.69;99711.63;5158044;28;20511;-73
2022/11/04 12:29:42;;;;;;;12.97;4.00;;;;;;;12.95;87.75;99721.91;5159241;28;20178;-76
2022/11/04 12:32:40;;;;;;;10.75;3.75;;;;;;;12.80;87.59;99730.63;5157412;28;21054;-76